Wetterdaten für den Flughafen Lübeck Blankensee


ADDS - METARS form results Aviation Digital Data Service (ADDS) Output produced by METARs form (1733 UTC 13 August 2022)
found at http://www.aviationweather.gov/metar/data/
 
EDHL 131720Z 06011KT CAVOK 27/14 Q1017 RMK
TAF EDHL 131700Z 1318/1321 05010KT CAVOK BECMG 1318/1320 VRB03KT

Nord: Hamburg, Lübeck
Ost: Schwerin, Rostock
Süd: Hannover
West: Bremen, Nordhloz

 

Copyright © 2016 Flugschule Hohensee